sensor_id;sensor_type;location;lat;lon;timestamp;P1;durP1;ratioP1;P2;durP2;ratioP2
59314;SDS011;46521;50.160;20.802;2024-02-21T00:01:54;9.28;;;4.13;;
59314;SDS011;46521;50.160;20.802;2024-02-21T00:11:55;9.15;;;4.23;;
59314;SDS011;46521;50.160;20.802;2024-02-21T00:21:57;8.87;;;3.80;;
59314;SDS011;46521;50.160;20.802;2024-02-21T00:31:58;9.63;;;4.08;;
59314;SDS011;46521;50.160;20.802;2024-02-21T00:42:00;8.78;;;3.73;;
59314;SDS011;46521;50.160;20.802;2024-02-21T00:52:02;8.20;;;4.00;;
59314;SDS011;46521;50.160;20.802;2024-02-21T01:02:03;7.87;;;3.83;;
59314;SDS011;46521;50.160;20.802;2024-02-21T01:12:05;7.43;;;2.95;;
59314;SDS011;46521;50.160;20.802;2024-02-21T01:22:08;7.00;;;3.08;;
59314;SDS011;46521;50.160;20.802;2024-02-21T01:32:09;6.63;;;2.83;;
59314;SDS011;46521;50.160;20.802;2024-02-21T01:42:11;6.70;;;2.57;;
59314;SDS011;46521;50.160;20.802;2024-02-21T01:52:14;7.17;;;2.70;;
59314;SDS011;46521;50.160;20.802;2024-02-21T02:02:17;9.07;;;2.90;;
59314;SDS011;46521;50.160;20.802;2024-02-21T02:12:19;6.35;;;2.38;;
59314;SDS011;46521;50.160;20.802;2024-02-21T02:22:22;7.30;;;2.50;;
59314;SDS011;46521;50.160;20.802;2024-02-21T02:32:29;6.33;;;2.48;;
59314;SDS011;46521;50.160;20.802;2024-02-21T02:42:31;7.83;;;2.87;;
59314;SDS011;46521;50.160;20.802;2024-02-21T02:52:32;7.78;;;3.15;;
59314;SDS011;46521;50.160;20.802;2024-02-21T03:02:34;8.45;;;3.45;;
59314;SDS011;46521;50.160;20.802;2024-02-21T03:12:36;9.87;;;3.97;;
59314;SDS011;46521;50.160;20.802;2024-02-21T03:22:38;12.67;;;5.27;;
59314;SDS011;46521;50.160;20.802;2024-02-21T03:32:43;13.30;;;5.93;;
59314;SDS011;46521;50.160;20.802;2024-02-21T03:42:44;13.13;;;6.97;;
59314;SDS011;46521;50.160;20.802;2024-02-21T03:52:46;17.67;;;7.03;;
59314;SDS011;46521;50.160;20.802;2024-02-21T04:02:48;14.10;;;6.47;;
59314;SDS011;46521;50.160;20.802;2024-02-21T04:12:50;14.20;;;6.57;;
59314;SDS011;46521;50.160;20.802;2024-02-21T04:22:51;18.80;;;8.75;;
59314;SDS011;46521;50.160;20.802;2024-02-21T04:32:53;16.23;;;6.90;;
59314;SDS011;46521;50.160;20.802;2024-02-21T04:42:54;16.53;;;7.18;;
59314;SDS011;46521;50.160;20.802;2024-02-21T04:52:56;16.10;;;7.20;;
59314;SDS011;46521;50.160;20.802;2024-02-21T05:02:57;16.10;;;7.88;;
59314;SDS011;46521;50.160;20.802;2024-02-21T05:12:59;17.63;;;8.35;;
59314;SDS011;46521;50.160;20.802;2024-02-21T05:23:00;18.85;;;7.38;;
59314;SDS011;46521;50.160;20.802;2024-02-21T05:33:05;18.00;;;7.60;;
59314;SDS011;46521;50.160;20.802;2024-02-21T05:43:07;16.77;;;8.17;;
59314;SDS011;46521;50.160;20.802;2024-02-21T05:53:09;14.57;;;7.27;;
59314;SDS011;46521;50.160;20.802;2024-02-21T06:03:11;17.53;;;7.10;;
59314;SDS011;46521;50.160;20.802;2024-02-21T06:13:13;15.75;;;7.55;;
59314;SDS011;46521;50.160;20.802;2024-02-21T06:23:15;16.88;;;8.75;;
59314;SDS011;46521;50.160;20.802;2024-02-21T06:33:17;15.73;;;9.10;;
59314;SDS011;46521;50.160;20.802;2024-02-21T06:43:20;20.80;;;9.15;;
59314;SDS011;46521;50.160;20.802;2024-02-21T06:53:22;16.30;;;8.55;;
59314;SDS011;46521;50.160;20.802;2024-02-21T07:03:23;17.95;;;7.75;;
59314;SDS011;46521;50.160;20.802;2024-02-21T07:13:25;14.93;;;6.70;;
59314;SDS011;46521;50.160;20.802;2024-02-21T07:23:26;15.10;;;6.90;;
59314;SDS011;46521;50.160;20.802;2024-02-21T07:33:28;11.53;;;6.23;;
59314;SDS011;46521;50.160;20.802;2024-02-21T07:43:31;12.75;;;5.75;;
59314;SDS011;46521;50.160;20.802;2024-02-21T07:53:33;14.40;;;5.60;;
59314;SDS011;46521;50.160;20.802;2024-02-21T08:03:34;11.85;;;5.20;;
59314;SDS011;46521;50.160;20.802;2024-02-21T08:13:36;12.15;;;5.08;;
59314;SDS011;46521;50.160;20.802;2024-02-21T08:23:37;11.90;;;4.03;;
59314;SDS011;46521;50.160;20.802;2024-02-21T08:33:39;11.45;;;4.18;;
59314;SDS011;46521;50.160;20.802;2024-02-21T08:43:40;12.55;;;3.78;;
59314;SDS011;46521;50.160;20.802;2024-02-21T08:53:42;10.70;;;4.17;;
59314;SDS011;46521;50.160;20.802;2024-02-21T09:03:44;10.20;;;3.23;;
59314;SDS011;46521;50.160;20.802;2024-02-21T09:13:47;8.38;;;3.35;;
59314;SDS011;46521;50.160;20.802;2024-02-21T09:23:48;8.48;;;2.93;;
59314;SDS011;46521;50.160;20.802;2024-02-21T09:33:50;10.03;;;3.20;;
59314;SDS011;46521;50.160;20.802;2024-02-21T09:43:52;17.43;;;3.78;;
59314;SDS011;46521;50.160;20.802;2024-02-21T09:53:56;11.90;;;3.07;;
59314;SDS011;46521;50.160;20.802;2024-02-21T10:03:59;9.27;;;3.30;;
59314;SDS011;46521;50.160;20.802;2024-02-21T10:14:04;7.88;;;2.73;;
59314;SDS011;46521;50.160;20.802;2024-02-21T10:34:08;10.03;;;3.78;;
59314;SDS011;46521;50.160;20.802;2024-02-21T10:44:09;9.90;;;2.88;;
59314;SDS011;46521;50.160;20.802;2024-02-21T11:04:30;9.73;;;3.00;;
59314;SDS011;46521;50.160;20.802;2024-02-21T11:14:37;9.15;;;3.05;;
59314;SDS011;46521;50.160;20.802;2024-02-21T11:24:40;9.90;;;3.30;;
59314;SDS011;46521;50.160;20.802;2024-02-21T11:35:00;9.77;;;3.00;;
59314;SDS011;46521;50.160;20.802;2024-02-21T11:45:04;9.08;;;2.75;;
59314;SDS011;46521;50.160;20.802;2024-02-21T11:55:07;7.63;;;2.60;;
59314;SDS011;46521;50.160;20.802;2024-02-21T12:05:09;8.38;;;2.68;;
59314;SDS011;46521;50.160;20.802;2024-02-21T12:15:10;7.28;;;2.85;;
59314;SDS011;46521;50.160;20.802;2024-02-21T12:25:16;9.38;;;2.78;;
59314;SDS011;46521;50.160;20.802;2024-02-21T12:35:27;8.20;;;2.65;;
59314;SDS011;46521;50.160;20.802;2024-02-21T12:45:28;6.98;;;2.50;;
59314;SDS011;46521;50.160;20.802;2024-02-21T12:55:30;7.03;;;2.75;;
59314;SDS011;46521;50.160;20.802;2024-02-21T13:05:31;8.90;;;2.85;;
59314;SDS011;46521;50.160;20.802;2024-02-21T13:15:33;7.43;;;3.05;;
59314;SDS011;46521;50.160;20.802;2024-02-21T13:25:35;6.73;;;3.27;;
59314;SDS011;46521;50.160;20.802;2024-02-21T13:35:36;12.87;;;4.17;;
59314;SDS011;46521;50.160;20.802;2024-02-21T13:45:39;10.65;;;3.55;;
59314;SDS011;46521;50.160;20.802;2024-02-21T13:55:44;9.18;;;3.20;;
59314;SDS011;46521;50.160;20.802;2024-02-21T14:05:46;9.17;;;3.43;;
59314;SDS011;46521;50.160;20.802;2024-02-21T14:15:49;7.80;;;3.40;;
59314;SDS011;46521;50.160;20.802;2024-02-21T14:25:51;10.20;;;3.73;;
59314;SDS011;46521;50.160;20.802;2024-02-21T14:35:52;8.63;;;3.37;;
59314;SDS011;46521;50.160;20.802;2024-02-21T14:45:54;12.03;;;4.23;;
59314;SDS011;46521;50.160;20.802;2024-02-21T14:55:55;11.37;;;4.93;;
59314;SDS011;46521;50.160;20.802;2024-02-21T15:05:58;11.18;;;4.98;;
59314;SDS011;46521;50.160;20.802;2024-02-21T15:16:00;9.00;;;4.38;;
59314;SDS011;46521;50.160;20.802;2024-02-21T15:26:01;12.08;;;5.15;;
59314;SDS011;46521;50.160;20.802;2024-02-21T15:36:03;10.83;;;5.20;;
59314;SDS011;46521;50.160;20.802;2024-02-21T15:46:05;9.75;;;4.48;;
59314;SDS011;46521;50.160;20.802;2024-02-21T15:56:06;11.60;;;5.15;;
59314;SDS011;46521;50.160;20.802;2024-02-21T16:06:08;12.97;;;4.70;;
59314;SDS011;46521;50.160;20.802;2024-02-21T16:16:10;14.43;;;5.97;;
59314;SDS011;46521;50.160;20.802;2024-02-21T16:26:11;12.48;;;5.03;;
59314;SDS011;46521;50.160;20.802;2024-02-21T16:36:22;12.00;;;5.65;;
59314;SDS011;46521;50.160;20.802;2024-02-21T16:46:24;11.18;;;4.98;;
59314;SDS011;46521;50.160;20.802;2024-02-21T16:56:26;8.85;;;3.58;;
59314;SDS011;46521;50.160;20.802;2024-02-21T17:06:28;7.58;;;3.10;;
59314;SDS011;46521;50.160;20.802;2024-02-21T17:16:29;8.00;;;3.00;;
59314;SDS011;46521;50.160;20.802;2024-02-21T17:26:31;8.53;;;3.63;;
59314;SDS011;46521;50.160;20.802;2024-02-21T17:36:33;8.63;;;3.83;;
59314;SDS011;46521;50.160;20.802;2024-02-21T17:46:34;8.75;;;3.65;;
59314;SDS011;46521;50.160;20.802;2024-02-21T17:56:43;9.30;;;4.28;;
59314;SDS011;46521;50.160;20.802;2024-02-21T18:06:44;13.53;;;6.23;;
59314;SDS011;46521;50.160;20.802;2024-02-21T18:16:45;14.93;;;7.13;;
59314;SDS011;46521;50.160;20.802;2024-02-21T18:26:47;15.20;;;9.55;;
59314;SDS011;46521;50.160;20.802;2024-02-21T18:36:49;17.70;;;11.10;;
59314;SDS011;46521;50.160;20.802;2024-02-21T18:46:51;17.55;;;11.20;;
59314;SDS011;46521;50.160;20.802;2024-02-21T18:56:52;15.15;;;7.25;;
59314;SDS011;46521;50.160;20.802;2024-02-21T19:06:53;14.00;;;8.45;;
59314;SDS011;46521;50.160;20.802;2024-02-21T19:16:56;15.37;;;8.67;;
59314;SDS011;46521;50.160;20.802;2024-02-21T19:26:58;15.10;;;9.08;;
59314;SDS011;46521;50.160;20.802;2024-02-21T19:37:00;13.98;;;8.48;;
59314;SDS011;46521;50.160;20.802;2024-02-21T19:47:02;41.90;;;21.33;;
59314;SDS011;46521;50.160;20.802;2024-02-21T19:57:05;88.00;;;40.53;;
59314;SDS011;46521;50.160;20.802;2024-02-21T20:07:06;24.27;;;12.33;;
59314;SDS011;46521;50.160;20.802;2024-02-21T20:17:08;19.98;;;10.90;;
59314;SDS011;46521;50.160;20.802;2024-02-21T20:27:10;19.90;;;10.03;;
59314;SDS011;46521;50.160;20.802;2024-02-21T20:37:14;18.87;;;10.03;;
59314;SDS011;46521;50.160;20.802;2024-02-21T20:47:15;17.88;;;9.73;;
59314;SDS011;46521;50.160;20.802;2024-02-21T20:57:19;20.83;;;11.33;;
59314;SDS011;46521;50.160;20.802;2024-02-21T21:07:20;24.45;;;16.48;;
59314;SDS011;46521;50.160;20.802;2024-02-21T21:17:22;15.50;;;8.97;;
59314;SDS011;46521;50.160;20.802;2024-02-21T21:27:24;14.63;;;9.00;;
59314;SDS011;46521;50.160;20.802;2024-02-21T21:37:27;14.43;;;8.00;;
59314;SDS011;46521;50.160;20.802;2024-02-21T21:47:29;14.10;;;7.30;;
59314;SDS011;46521;50.160;20.802;2024-02-21T21:57:32;18.10;;;8.93;;
59314;SDS011;46521;50.160;20.802;2024-02-21T22:07:33;14.07;;;8.37;;
59314;SDS011;46521;50.160;20.802;2024-02-21T22:17:34;15.95;;;9.35;;
59314;SDS011;46521;50.160;20.802;2024-02-21T22:27:36;18.35;;;8.93;;
59314;SDS011;46521;50.160;20.802;2024-02-21T22:37:38;15.23;;;8.40;;
59314;SDS011;46521;50.160;20.802;2024-02-21T22:47:39;16.80;;;8.63;;
59314;SDS011;46521;50.160;20.802;2024-02-21T22:57:40;16.33;;;8.80;;
59314;SDS011;46521;50.160;20.802;2024-02-21T23:07:43;16.48;;;8.90;;
59314;SDS011;46521;50.160;20.802;2024-02-21T23:17:50;16.17;;;9.70;;
59314;SDS011;46521;50.160;20.802;2024-02-21T23:27:51;15.97;;;9.03;;
59314;SDS011;46521;50.160;20.802;2024-02-21T23:37:54;23.73;;;12.47;;
59314;SDS011;46521;50.160;20.802;2024-02-21T23:47:56;28.23;;;15.17;;
59314;SDS011;46521;50.160;20.802;2024-02-21T23:57:57;23.20;;;12.10;;
